Time;durP1;ratioP1;P1;durP2;ratioP2;P2;SDS_P1;SDS_P2;PMS_P1;PMS_P2;Temp;Humidity;BMP_temperature;BMP_pressure;BME280_temperature;BME280_humidity;BME280_pressure;Samples;Min_cycle;Max_cycle;Signal;HPM_P1;HPM_P2
2021/05/11 00:00:20;;;;;;;8.53;4.77;;;;;;;16.62;45.57;99969.59;128268;1098;100991;-86
2021/05/11 00:03:12;;;;;;;5.93;4.50;;;;;;;16.57;45.60;99961.98;128060;1098;100691;-87
2021/05/11 00:05:59;;;;;;;8.03;4.63;;;;;;;16.54;45.77;99964.81;128159;1098;100616;-86
2021/05/11 00:08:47;;;;;;;8.93;4.57;;;;;;;16.51;45.86;99975.50;128230;1098;100821;-86
2021/05/11 00:11:35;;;;;;;8.08;4.53;;;;;;;16.47;46.19;99959.99;128063;1098;101033;-86
2021/05/11 00:14:22;;;;;;;7.00;5.03;;;;;;;16.44;46.11;99961.03;128059;1098;100641;-87
2021/05/11 00:17:09;;;;;;;10.98;5.05;;;;;;;16.42;46.36;99980.50;128218;1098;100752;-86
2021/05/11 00:19:58;;;;;;;13.03;4.90;;;;;;;16.39;46.48;99983.31;128234;1098;100979;-86
2021/05/11 00:22:46;;;;;;;9.43;4.80;;;;;;;16.36;46.41;99980.88;128059;1098;101642;-86
2021/05/11 00:25:34;;;;;;;10.23;4.70;;;;;;;16.33;46.62;99977.45;127995;1099;100759;-86
2021/05/11 00:28:21;;;;;;;5.73;4.60;;;;;;;16.30;46.84;99982.06;128220;1098;100859;-86
2021/05/11 00:31:08;;;;;;;9.65;4.75;;;;;;;16.25;46.61;99973.61;128027;1098;100961;-87
2021/05/11 00:33:55;;;;;;;10.00;4.83;;;;;;;16.22;46.86;99986.95;128025;1098;100776;-86
2021/05/11 00:36:42;;;;;;;9.28;4.65;;;;;;;16.17;47.14;99966.19;128261;1098;101981;-86
2021/05/11 00:39:29;;;;;;;7.43;5.13;;;;;;;16.15;46.78;99973.30;128133;1098;100701;-86
2021/05/11 00:42:16;;;;;;;9.53;4.68;;;;;;;16.12;47.02;99968.22;128224;1098;100940;-86
2021/05/11 00:45:05;;;;;;;8.00;4.40;;;;;;;16.10;47.16;99963.99;128103;1098;100888;-86
2021/05/11 00:47:52;;;;;;;6.87;4.30;;;;;;;16.08;47.45;99987.77;128082;1098;100698;-86
2021/05/11 00:50:39;;;;;;;6.95;4.10;;;;;;;16.08;47.24;99981.66;128033;1098;103061;-86
2021/05/11 00:53:26;;;;;;;11.58;4.75;;;;;;;16.06;47.42;99965.97;128207;1098;101203;-86
2021/05/11 00:56:14;;;;;;;9.65;4.80;;;;;;;16.04;47.33;99961.73;128240;1098;100707;-86
2021/05/11 00:59:02;;;;;;;9.23;5.00;;;;;;;16.03;47.42;99967.94;128045;1098;100795;-86
2021/05/11 01:01:49;;;;;;;;;;;;;;;15.99;47.57;99964.64;128225;1098;100840;-86
2021/05/11 01:04:37;;;;;;;6.27;4.60;;;;;;;15.96;47.46;99959.54;128175;1098;101936;-86
2021/05/11 01:07:24;;;;;;;8.73;4.60;;;;;;;15.93;47.84;99968.46;128081;1098;100693;-86
2021/05/11 01:10:11;;;;;;;6.13;4.25;;;;;;;15.93;47.50;99968.46;128269;1098;101047;-86
2021/05/11 01:12:58;;;;;;;7.50;4.55;;;;;;;15.90;47.67;99962.54;128008;1098;101243;-85
2021/05/11 01:15:49;;;;;;;6.78;4.68;;;;;;;15.87;47.67;99963.57;128053;1099;101129;-86
2021/05/11 01:18:36;;;;;;;6.67;4.50;;;;;;;15.85;47.95;99959.34;128066;1098;100830;-87
2021/05/11 01:21:45;;;;;;;8.77;4.80;;;;;;;15.81;48.14;99952.57;128031;1098;100991;-85
2021/05/11 01:24:34;;;;;;;7.48;4.90;;;;;;;15.78;48.49;99942.20;128085;1098;100748;-86
2021/05/11 01:27:34;;;;;;;7.23;4.53;;;;;;;15.75;48.22;99947.65;128264;1098;100691;-86
2021/05/11 01:30:50;;;;;;;10.17;4.87;;;;;;;15.68;48.24;99942.76;128244;1098;100932;-86
2021/05/11 01:46:27;;;;;;;13.67;6.47;;;;;;;15.35;49.01;99956.01;128232;1098;100741;-86
2021/05/11 01:55:35;;;;;;;8.70;5.53;;;;;;;15.16;49.59;99959.75;128047;1098;101151;-86
2021/05/11 02:23:12;;;;;;;12.33;5.50;;;;;;;14.69;51.10;99950.05;128247;1098;100953;-86
2021/05/11 02:25:59;;;;;;;12.38;5.80;;;;;;;14.64;51.29;99942.44;128266;1098;100720;-85
2021/05/11 02:28:46;;;;;;;6.75;5.30;;;;;;;14.61;51.58;99941.75;128039;1098;100988;-85
2021/05/11 02:31:33;;;;;;;9.03;5.55;;;;;;;14.57;51.58;99942.86;128278;1098;100698;-85
2021/05/11 02:34:20;;;;;;;10.38;5.60;;;;;;;14.53;52.21;99943.92;128254;1098;101145;-86
2021/05/11 02:37:07;;;;;;;8.33;5.33;;;;;;;14.48;52.31;99950.27;128047;1098;101081;-86
2021/05/11 02:39:54;;;;;;;9.00;5.58;;;;;;;14.43;52.26;99949.67;128160;1098;101079;-86
2021/05/11 02:42:44;;;;;;;7.60;5.38;;;;;;;14.37;52.27;99934.23;128033;1098;100861;-86
2021/05/11 02:45:33;;;;;;;8.97;5.90;;;;;;;14.31;52.80;99945.02;128082;1098;101028;-86
2021/05/11 02:48:20;;;;;;;8.50;5.67;;;;;;;14.28;52.87;99949.59;128259;1098;100785;-86
2021/05/11 02:51:07;;;;;;;13.73;6.05;;;;;;;14.24;53.05;99956.78;128019;1098;100740;-86
2021/05/11 02:53:55;;;;;;;9.00;5.47;;;;;;;14.21;53.02;99951.70;128069;1098;101119;-86
2021/05/11 02:56:43;;;;;;;10.13;5.78;;;;;;;14.16;53.32;99940.57;128245;1098;100856;-86
2021/05/11 02:59:30;;;;;;;11.07;5.80;;;;;;;14.13;52.79;99938.11;128113;1098;100824;-86
2021/05/11 03:02:17;;;;;;;9.35;5.50;;;;;;;14.10;53.17;99943.52;128047;1099;101033;-86
2021/05/11 03:05:06;;;;;;;9.43;5.73;;;;;;;14.06;53.55;99947.23;128065;1098;100956;-86
2021/05/11 03:07:54;;;;;;;11.20;5.40;;;;;;;14.04;53.18;99946.47;128091;1098;100723;-86
2021/05/11 03:10:41;;;;;;;8.75;5.63;;;;;;;14.02;53.92;99940.45;128093;1098;100726;-86
2021/05/11 03:13:28;;;;;;;11.83;5.93;;;;;;;13.99;53.51;99951.08;128273;1098;100719;-86
2021/05/11 03:16:16;;;;;;;14.28;5.85;;;;;;;13.97;54.00;99950.31;128049;1098;101519;-86
2021/05/11 03:19:03;;;;;;;10.40;5.63;;;;;;;13.94;53.69;99961.80;128067;1099;100962;-86
2021/05/11 03:21:50;;;;;;;;;;;;;;;13.91;53.74;99943.61;128108;1098;101190;-86
2021/05/11 03:24:39;;;;;;;9.83;5.80;;;;;;;13.88;54.16;99965.59;128064;1098;101145;-86
2021/05/11 03:27:27;;;;;;;11.20;5.93;;;;;;;13.87;54.11;99963.05;128274;1098;100824;-86
2021/05/11 03:30:15;;;;;;;10.37;5.33;;;;;;;13.86;54.06;99958.73;128076;1098;102795;-85
2021/05/11 03:33:01;;;;;;;;;;;;;;;13.85;54.15;99950.02;128051;1098;100680;-85
2021/05/11 03:35:49;;;;;;;11.07;5.73;;;;;;;13.85;53.78;99950.02;128244;1098;100725;-85
2021/05/11 03:38:36;;;;;;;14.95;6.90;;;;;;;13.86;53.83;99943.85;128267;1098;100669;-86
2021/05/11 03:41:27;;;;;;;9.38;6.15;;;;;;;13.87;54.00;99939.45;128094;1099;100776;-85
2021/05/11 03:44:17;;;;;;;10.47;5.90;;;;;;;13.89;53.66;99948.09;128098;1098;101875;-86
2021/05/11 03:47:05;;;;;;;8.40;5.70;;;;;;;13.89;54.16;99948.09;128062;1098;100837;-85
2021/05/11 03:49:57;;;;;;;16.17;6.13;;;;;;;13.90;54.00;99955.02;128101;1098;100763;-86
2021/05/11 03:52:45;;;;;;;;;;;;;;;13.91;53.63;99939.22;128193;1098;100755;-85
2021/05/11 03:55:32;;;;;;;11.27;5.90;;;;;;;13.91;53.90;99949.70;128287;1098;100896;-85
2021/05/11 03:58:20;;;;;;;;;;;;;;;13.93;53.77;99949.63;128078;1098;100727;-86
2021/05/11 04:01:08;;;;;;;10.93;6.17;;;;;;;13.95;53.76;99946.92;128240;1098;101148;-86
2021/05/11 04:03:55;;;;;;;10.43;6.60;;;;;;;13.96;53.79;99944.22;128037;1098;100561;-86
2021/05/11 04:06:45;;;;;;;12.77;6.00;;;;;;;14.00;53.72;99950.15;128246;1098;100854;-86
2021/05/11 04:09:38;;;;;;;10.47;5.73;;;;;;;14.03;53.51;99939.53;128225;1098;101162;-86
2021/05/11 04:18:29;;;;;;;9.73;6.43;;;;;;;14.12;53.33;99949.53;128092;1099;100693;-85
2021/05/11 04:21:18;;;;;;;11.30;6.13;;;;;;;14.16;53.31;99945.81;128053;1098;100794;-85
2021/05/11 04:24:06;;;;;;;14.03;6.00;;;;;;;14.19;53.00;99946.53;128048;1098;100700;-85
2021/05/11 04:26:54;;;;;;;13.20;6.20;;;;;;;14.24;53.05;99950.69;128220;1098;101581;-85
2021/05/11 04:29:41;;;;;;;;;;;;;;;14.28;52.67;99939.95;128060;1099;100838;-85
2021/05/11 04:32:29;;;;;;;12.20;6.03;;;;;;;14.34;52.77;99954.51;128212;1098;100845;-85
2021/05/11 04:35:16;;;;;;;12.73;6.30;;;;;;;14.39;52.63;99952.52;128075;1098;100682;-85
2021/05/11 04:38:04;;;;;;;10.13;6.30;;;;;;;14.44;52.43;99951.37;128057;1099;100762;-85
2021/05/11 04:40:52;;;;;;;;;;;;;;;14.53;52.17;99957.89;128080;1098;101908;-85
2021/05/11 04:43:40;;;;;;;12.73;6.23;;;;;;;14.59;51.97;99947.09;128196;1098;100942;-85
2021/05/11 04:46:39;;;;;;;11.30;5.73;;;;;;;14.68;51.66;99950.98;128084;1098;100643;-85
2021/05/11 04:49:27;;;;;;;14.10;6.10;;;;;;;14.78;51.53;99947.80;128066;1098;100812;-85
2021/05/11 04:52:15;;;;;;;15.73;6.00;;;;;;;14.88;51.42;99942.88;128035;1098;100699;-85
2021/05/11 04:55:02;;;;;;;9.67;6.37;;;;;;;15.00;51.10;99960.59;128265;1098;101936;-84
2021/05/11 04:57:50;;;;;;;12.13;5.57;;;;;;;15.14;50.81;99966.88;128006;1098;100843;-85
2021/05/11 05:00:38;;;;;;;13.67;6.10;;;;;;;15.26;50.64;99960.92;128060;1098;100637;-85
2021/05/11 05:03:26;;;;;;;;;;;;;;;15.43;50.22;99959.03;128096;1098;100685;-85
2021/05/11 05:06:14;;;;;;;10.35;5.93;;;;;;;15.56;49.60;99969.70;128211;1098;100801;-85
2021/05/11 05:09:02;;;;;;;7.80;5.40;;;;;;;15.84;49.28;99961.13;128075;1099;101972;-85
2021/05/11 05:11:50;;;;;;;9.40;4.93;;;;;;;17.04;48.05;99966.09;128038;1098;101040;-85
2021/05/11 05:14:38;;;;;;;;;;;;;;;19.15;44.51;99944.75;128100;1099;100155;-86
2021/05/11 05:17:27;;;;;;;8.90;4.90;;;;;;;21.09;41.07;99941.38;128277;1098;100792;-85
2021/05/11 05:20:15;;;;;;;8.17;5.00;;;;;;;22.72;35.91;99953.38;128068;1098;100999;-85
2021/05/11 05:23:03;;;;;;;7.63;4.70;;;;;;;24.05;34.31;99923.59;128059;1098;100761;-85
2021/05/11 05:25:54;;;;;;;8.27;4.60;;;;;;;25.09;33.74;99916.34;128039;1098;101073;-86
2021/05/11 05:28:42;;;;;;;6.85;4.50;;;;;;;26.27;30.64;99931.26;128221;1098;101222;-86
2021/05/11 05:31:30;;;;;;;9.23;4.20;;;;;;;27.18;29.28;99916.33;128053;1098;100765;-86
2021/05/11 05:34:18;;;;;;;5.33;4.20;;;;;;;28.18;29.09;99915.19;128292;1098;101288;-85
2021/05/11 05:37:06;;;;;;;8.47;3.83;;;;;;;29.17;27.12;99924.61;128114;1098;101960;-85
2021/05/11 05:39:57;;;;;;;7.17;4.10;;;;;;;30.09;25.83;99922.77;128229;1098;100861;-85
2021/05/11 05:42:46;;;;;;;7.53;4.30;;;;;;;30.42;24.68;99927.81;128154;1098;100747;-86
2021/05/11 05:45:34;;;;;;;12.63;4.17;;;;;;;30.86;24.73;99906.27;128130;1098;101037;-86
2021/05/11 05:48:22;;;;;;;14.00;4.17;;;;;;;31.30;23.25;99913.44;128065;1098;100792;-85
2021/05/11 05:51:11;;;;;;;9.10;4.53;;;;;;;31.45;22.10;99914.22;128254;1098;100769;-85
2021/05/11 05:53:58;;;;;;;8.20;4.43;;;;;;;31.69;22.23;99939.95;128075;1098;100814;-86
2021/05/11 05:56:54;;;;;;;12.80;4.40;;;;;;;32.04;21.62;99924.72;128217;1098;100845;-86
2021/05/11 05:59:43;;;;;;;5.87;4.00;;;;;;;31.88;22.23;99916.91;128071;1100;100818;-86
2021/05/11 06:02:30;;;;;;;6.87;4.10;;;;;;;32.15;20.63;99927.72;128061;1099;100752;-86
2021/05/11 06:05:19;;;;;;;8.07;3.87;;;;;;;32.48;21.71;99920.88;128028;1099;101546;-87
2021/05/11 06:08:07;;;;;;;8.70;3.93;;;;;;;33.01;21.79;99909.30;128008;1098;100940;-86
2021/05/11 06:11:13;;;;;;;9.97;4.20;;;;;;;33.50;20.09;99913.61;128049;1098;100806;-86
2021/05/11 06:17:13;;;;;;;6.97;3.77;;;;;;;34.12;20.07;99904.30;128283;1098;100727;-86
2021/05/11 06:20:02;;;;;;;9.97;3.77;;;;;;;34.45;18.16;99900.69;128235;1098;101080;-86
2021/05/11 06:22:50;;;;;;;6.37;4.13;;;;;;;34.24;18.63;99894.47;128046;1098;100926;-86
2021/05/11 06:25:42;;;;;;;9.93;3.93;;;;;;;33.90;18.54;99902.84;128252;1098;100817;-86
2021/05/11 06:28:32;;;;;;;9.03;4.03;;;;;;;33.52;18.44;99895.31;128001;1098;100637;-86
2021/05/11 06:31:19;;;;;;;4.40;3.83;;;;;;;33.38;18.88;99895.49;128052;1098;100692;-86
2021/05/11 06:34:09;;;;;;;10.83;4.07;;;;;;;33.54;19.68;99890.52;128293;1098;100786;-86
2021/05/11 06:36:56;;;;;;;8.23;3.90;;;;;;;33.81;18.53;99885.14;128023;1098;101218;-86
2021/05/11 06:39:48;;;;;;;6.23;3.60;;;;;;;33.95;18.97;99881.41;128264;1097;100865;-86
2021/05/11 06:42:38;;;;;;;10.77;4.13;;;;;;;34.41;19.12;99884.05;128213;1098;100729;-86
2021/05/11 06:48:36;;;;;;;6.20;3.93;;;;;;;34.08;17.95;99897.61;128233;1098;101453;-86
2021/05/11 06:54:14;;;;;;;6.63;3.77;;;;;;;33.63;18.39;99881.18;128255;1098;100858;-86
2021/05/11 06:57:02;;;;;;;8.87;3.77;;;;;;;33.38;18.14;99887.38;128205;1098;100707;-86
2021/05/11 06:59:51;;;;;;;11.33;3.97;;;;;;;33.11;18.34;99898.13;128111;1098;100790;-85
2021/05/11 07:02:39;;;;;;;8.10;3.80;;;;;;;33.38;19.19;99882.81;127995;1098;101511;-85
2021/05/11 07:05:31;;;;;;;10.97;3.70;;;;;;;33.52;17.78;99876.38;127990;1098;101054;-85
2021/05/11 07:08:34;;;;;;;11.63;4.30;;;;;;;33.54;18.53;99874.30;128199;1098;101602;-84
2021/05/11 07:11:32;;;;;;;9.23;3.40;;;;;;;33.70;18.14;99866.81;128243;1098;100741;-84
2021/05/11 07:14:20;;;;;;;6.50;3.53;;;;;;;33.51;18.03;99858.50;128068;1098;100747;-85
2021/05/11 07:17:08;;;;;;;9.23;3.97;;;;;;;33.62;18.32;99859.76;128016;1098;100814;-85
2021/05/11 07:19:56;;;;;;;10.43;3.47;;;;;;;33.67;18.32;99856.42;128003;1098;100696;-85
2021/05/11 07:22:43;;;;;;;5.90;3.50;;;;;;;33.57;17.96;99863.06;128001;1098;100846;-85
2021/05/11 07:25:39;;;;;;;12.80;3.90;;;;;;;33.60;18.45;99868.08;127997;1098;101263;-85
2021/05/11 07:31:16;;;;;;;8.47;3.40;;;;;;;34.36;18.62;99855.95;128009;1098;100730;-84
2021/05/11 07:34:06;;;;;;;8.27;3.47;;;;;;;34.90;18.53;99860.13;128198;1098;100850;-83
2021/05/11 07:36:54;;;;;;;10.73;3.57;;;;;;;35.39;17.00;99857.55;127994;1098;101066;-83
2021/05/11 07:39:45;;;;;;;9.63;3.10;;;;;;;34.87;17.51;99868.70;128007;1099;101181;-83
2021/05/11 07:42:33;;;;;;;12.37;3.53;;;;;;;34.56;17.07;99856.71;128222;1098;100705;-83
2021/05/11 07:45:32;;;;;;;7.40;2.97;;;;;;;33.92;17.37;99857.46;128038;1098;101861;-83
2021/05/11 08:09:47;;;;;;;4.90;3.23;;;;;;;33.31;18.64;99858.45;128217;1098;100863;-83
2021/05/11 08:15:53;;;;;;;8.03;3.13;;;;;;;33.28;18.59;99849.93;128071;1098;101846;-84
2021/05/11 08:18:57;;;;;;;7.87;3.63;;;;;;;33.27;18.56;99861.78;128008;1098;100882;-84
2021/05/11 08:22:14;;;;;;;5.70;3.20;;;;;;;32.96;18.82;99838.85;128208;1098;101806;-84
2021/05/11 08:28:43;;;;;;;7.75;3.10;;;;;;;32.26;19.29;99844.53;128161;1097;101046;-84
2021/05/11 08:31:52;;;;;;;11.95;3.10;;;;;;;32.09;19.40;99862.91;128061;1098;100771;-84
2021/05/11 08:34:53;;;;;;;14.67;3.23;;;;;;;31.62;19.75;99844.70;128034;1098;101252;-84
2021/05/11 08:38:00;;;;;;;5.83;3.20;;;;;;;31.40;20.51;99836.63;128016;1099;100764;-84
2021/05/11 08:41:10;;;;;;;12.43;3.30;;;;;;;31.33;20.11;99834.91;128031;1098;100734;-84
2021/05/11 08:44:23;;;;;;;6.07;2.60;;;;;;;31.60;20.41;99842.20;127906;1101;101129;-84
2021/05/11 08:47:11;;;;;;;12.97;3.33;;;;;;;31.49;20.03;99858.90;127891;1101;101911;-83
2021/05/11 08:50:00;;;;;;;25.77;3.97;;;;;;;30.98;20.73;99845.52;127872;1101;100932;-83
2021/05/11 08:53:05;;;;;;;12.93;3.23;;;;;;;30.55;21.35;99858.87;127884;1101;100905;-83
2021/05/11 10:48:23;;;;;;;5.57;2.40;;;;;;;28.55;24.65;99776.98;128069;1098;100953;-82
2021/05/11 10:51:28;;;;;;;13.97;3.27;;;;;;;28.36;24.47;99780.06;128213;1098;100693;-82
2021/05/11 10:54:34;;;;;;;10.83;3.10;;;;;;;28.15;25.10;99776.11;128028;1098;101467;-82
2021/05/11 10:57:31;;;;;;;7.40;2.50;;;;;;;27.74;25.11;99787.97;128002;1098;100992;-83
2021/05/11 11:00:58;;;;;;;7.93;2.53;;;;;;;27.45;25.32;99773.23;128023;1098;101352;-83
2021/05/11 11:03:39;;;;;;;8.57;2.90;;;;;;;27.24;25.60;99776.44;128005;1098;101820;-82
2021/05/11 11:06:58;;;;;;;15.33;3.00;;;;;;;27.08;26.18;99790.65;128040;1099;100710;-82
2021/05/11 11:09:59;;;;;;;7.50;2.50;;;;;;;26.95;26.52;99774.23;128192;1098;101711;-81
2021/05/11 11:12:47;;;;;;;5.63;2.30;;;;;;;27.02;26.38;99777.10;127989;1099;100853;-82
2021/05/11 11:15:34;;;;;;;9.43;2.70;;;;;;;27.10;26.46;99764.55;128011;1098;101062;-82
2021/05/11 11:18:22;;;;;;;7.60;3.00;;;;;;;27.18;26.79;99747.66;128037;1098;100815;-81
2021/05/11 11:24:04;;;;;;;8.40;2.83;;;;;;;27.36;26.60;99768.91;127995;1098;101765;-82
2021/05/11 11:26:55;;;;;;;7.43;2.80;;;;;;;27.34;26.27;99755.69;127986;1098;100857;-82
2021/05/11 11:29:43;;;;;;;4.70;2.43;;;;;;;27.30;26.30;99759.72;128188;1098;101101;-82
2021/05/11 11:32:31;;;;;;;7.57;2.87;;;;;;;27.25;26.37;99747.81;128245;1098;100738;-84
2021/05/11 11:35:20;;;;;;;8.20;2.53;;;;;;;27.24;26.62;99749.66;128031;1098;101067;-83
2021/05/11 11:38:09;;;;;;;8.30;2.67;;;;;;;27.19;26.35;99741.30;128213;1098;100938;-84
2021/05/11 11:41:02;;;;;;;6.40;2.83;;;;;;;27.13;26.77;99783.98;128024;1098;101007;-84
2021/05/11 11:43:50;;;;;;;7.57;2.57;;;;;;;27.10;26.79;99756.52;128015;1098;100798;-83
2021/05/11 11:46:38;;;;;;;13.37;2.57;;;;;;;27.12;26.51;99734.13;128060;1098;100761;-83
2021/05/11 11:49:28;;;;;;;13.23;2.77;;;;;;;27.03;26.91;99752.02;128174;1098;100788;-84
2021/05/11 11:52:33;;;;;;;6.67;2.43;;;;;;;27.01;26.99;99776.27;128022;1098;100759;-84
2021/05/11 11:58:28;;;;;;;12.27;2.70;;;;;;;26.99;27.03;99740.78;128016;1098;100871;-83
2021/05/11 12:01:18;;;;;;;13.40;2.37;;;;;;;27.06;27.18;99762.38;128051;1098;100874;-83
2021/05/11 12:04:06;;;;;;;10.63;2.50;;;;;;;27.03;26.83;99750.17;128066;1098;101180;-85
2021/05/11 12:06:54;;;;;;;9.73;2.73;;;;;;;27.08;27.35;99736.28;128008;1098;101052;-85
2021/05/11 12:09:42;;;;;;;8.43;2.63;;;;;;;27.20;27.38;99723.41;128028;1098;100874;-84
2021/05/11 12:12:29;;;;;;;16.43;2.77;;;;;;;27.23;26.80;99715.02;128039;1098;100766;-84
2021/05/11 12:15:33;;;;;;;11.27;2.60;;;;;;;27.26;27.03;99703.97;128118;1098;100969;-85
2021/05/11 12:18:25;;;;;;;6.20;2.40;;;;;;;27.31;26.97;99717.71;128063;1098;101129;-84
2021/05/11 12:21:16;;;;;;;6.87;2.90;;;;;;;27.38;26.82;99707.98;127996;1100;100854;-83
2021/05/11 12:24:11;;;;;;;4.83;2.20;;;;;;;27.37;26.74;99706.31;128207;1098;100991;-83
2021/05/11 12:27:13;;;;;;;9.65;2.55;;;;;;;27.42;27.04;99705.79;128137;1098;100603;-83
2021/05/11 12:30:06;;;;;;;17.27;3.33;;;;;;;27.48;26.85;99692.58;128071;1098;100679;-83
2021/05/11 12:33:05;;;;;;;6.57;2.60;;;;;;;27.40;26.46;99708.64;128039;1099;100785;-83
2021/05/11 12:35:53;;;;;;;7.50;2.70;;;;;;;27.36;26.70;99688.58;128015;1098;101971;-83
2021/05/11 12:38:41;;;;;;;13.40;2.80;;;;;;;27.38;27.23;99694.59;127985;1098;100950;-84
2021/05/11 12:41:33;;;;;;;11.30;2.70;;;;;;;27.38;26.89;99732.92;128072;1098;100713;-83
2021/05/11 12:44:30;;;;;;;10.58;2.53;;;;;;;27.41;27.21;99710.31;128024;1098;101059;-83
2021/05/11 12:47:18;;;;;;;9.17;3.00;;;;;;;27.28;27.34;99700.12;128039;1098;100934;-82
2021/05/11 12:50:20;;;;;;;8.73;2.60;;;;;;;27.23;27.52;99688.25;128005;1098;101570;-82
2021/05/11 12:57:04;;;;;;;7.27;2.40;;;;;;;27.19;26.87;99687.77;127982;1098;100867;-83
2021/05/11 13:00:11;;;;;;;10.97;2.50;;;;;;;27.17;27.42;99689.78;127937;1100;100775;-83
2021/05/11 13:09:37;;;;;;;10.93;2.80;;;;;;;27.04;27.27;99676.06;128017;1098;100867;-83
2021/05/11 13:16:11;;;;;;;7.57;2.43;;;;;;;26.89;27.42;99675.03;128039;1098;101161;-84
2021/05/11 13:25:19;;;;;;;12.23;2.70;;;;;;;26.70;27.88;99670.86;128008;1098;100810;-81
2021/05/11 13:31:04;;;;;;;10.07;2.80;;;;;;;26.60;28.07;99663.01;128003;1098;101126;-83
2021/05/11 13:34:09;;;;;;;10.53;2.90;;;;;;;26.53;28.40;99679.86;128051;1099;101445;-82
2021/05/11 13:36:57;;;;;;;9.90;3.03;;;;;;;26.47;28.44;99676.86;127986;1098;102354;-82
2021/05/11 13:39:45;;;;;;;9.70;2.80;;;;;;;26.39;28.53;99651.93;128191;1098;100742;-82
2021/05/11 13:42:32;;;;;;;8.83;3.60;;;;;;;26.27;28.47;99664.77;128210;1098;100901;-82
2021/05/11 13:45:20;;;;;;;12.80;3.23;;;;;;;26.17;28.84;99648.02;128224;1098;100770;-82
2021/05/11 13:48:15;;;;;;;12.27;2.60;;;;;;;26.12;28.88;99661.88;128004;1098;101228;-82
2021/05/11 13:51:09;;;;;;;8.73;2.70;;;;;;;26.13;28.97;99654.70;128212;1098;101591;-82
2021/05/11 13:54:02;;;;;;;7.17;2.83;;;;;;;26.12;28.78;99656.54;128162;1098;100860;-81
2021/05/11 13:57:13;;;;;;;9.70;3.10;;;;;;;26.13;29.09;99652.03;128028;1098;100768;-82
2021/05/11 14:03:09;;;;;;;11.53;2.60;;;;;;;26.05;28.55;99666.22;128257;1098;100778;-81
2021/05/11 14:05:57;;;;;;;9.73;3.00;;;;;;;26.02;28.68;99660.34;128230;1098;101534;-81
2021/05/11 14:08:44;;;;;;;8.70;2.70;;;;;;;26.01;28.65;99669.36;128046;1098;100802;-81
2021/05/11 14:11:36;;;;;;;6.27;2.53;;;;;;;26.07;28.50;99647.34;128220;1098;101035;-82
2021/05/11 14:14:24;;;;;;;7.63;2.77;;;;;;;26.11;28.39;99654.03;128040;1098;100695;-82
2021/05/11 14:17:12;;;;;;;9.33;3.00;;;;;;;26.13;28.57;99652.03;128203;1098;100753;-82
2021/05/11 14:20:00;;;;;;;7.23;3.10;;;;;;;26.17;28.75;99650.70;128228;1098;101919;-82
2021/05/11 14:22:48;;;;;;;9.43;2.50;;;;;;;26.23;28.47;99636.70;127972;1098;101296;-82
2021/05/11 14:25:35;;;;;;;10.27;2.53;;;;;;;26.23;28.46;99628.67;128021;1098;101122;-83
2021/05/11 14:28:24;;;;;;;11.60;2.63;;;;;;;26.23;28.56;99647.39;128045;1098;101034;-83
2021/05/11 14:31:12;;;;;;;10.67;2.40;;;;;;;26.20;28.31;99635.16;127979;1098;101220;-83
2021/05/11 14:34:00;;;;;;;7.70;2.30;;;;;;;26.17;28.55;99627.48;128030;1098;101575;-84
2021/05/11 14:36:48;;;;;;;17.20;3.30;;;;;;;26.14;28.13;99619.79;128147;1098;100835;-84
2021/05/11 14:39:37;;;;;;;7.40;2.33;;;;;;;26.12;28.17;99650.36;128220;1098;101359;-84
2021/05/11 14:42:25;;;;;;;7.13;2.43;;;;;;;26.04;28.40;99627.14;128214;1098;100751;-83
2021/05/11 14:45:13;;;;;;;5.07;2.40;;;;;;;26.01;28.39;99637.29;128039;1098;100723;-83
2021/05/11 14:48:00;;;;;;;10.20;2.30;;;;;;;25.97;28.27;99626.09;127993;1098;103374;-84
2021/05/11 14:50:48;;;;;;;5.77;2.20;;;;;;;25.94;28.60;99625.59;127969;1098;100907;-83
2021/05/11 14:53:37;;;;;;;13.23;2.47;;;;;;;25.90;28.83;99625.92;128011;1098;100832;-83
2021/05/11 14:56:25;;;;;;;11.67;2.43;;;;;;;25.84;28.47;99629.22;128000;1098;100799;-83
2021/05/11 14:59:14;;;;;;;9.13;2.13;;;;;;;25.80;28.63;99629.72;128020;1098;101567;-83
2021/05/11 15:02:06;;;;;;;6.77;2.03;;;;;;;25.78;28.99;99605.84;127997;1098;102499;-83
2021/05/11 15:05:03;;;;;;;5.43;2.30;;;;;;;25.76;28.74;99602.50;127961;1098;101260;-82
2021/05/11 15:07:51;;;;;;;7.27;2.33;;;;;;;25.74;28.77;99615.19;127973;1098;100837;-82
2021/05/11 15:10:38;;;;;;;7.00;2.27;;;;;;;25.73;28.71;99604.66;127994;1098;100778;-82
2021/05/11 15:13:26;;;;;;;10.27;2.30;;;;;;;25.71;29.15;99610.17;128063;1098;100854;-82
2021/05/11 15:16:25;;;;;;;3.03;1.80;;;;;;;25.70;29.11;99607.66;128017;1098;100774;-82
2021/05/11 15:19:17;;;;;;;9.10;2.00;;;;;;;25.69;29.10;99620.19;127994;1098;101098;-83
2021/05/11 15:22:04;;;;;;;7.73;2.17;;;;;;;25.66;28.85;99587.56;128012;1098;100969;-82
2021/05/11 15:24:54;;;;;;;7.10;2.17;;;;;;;25.60;28.87;99608.58;128206;1098;101029;-81
2021/05/11 15:27:42;;;;;;;7.97;2.50;;;;;;;25.55;28.88;99600.23;128237;1098;100664;-81
2021/05/11 15:30:44;;;;;;;4.80;2.20;;;;;;;25.53;28.87;99585.38;128206;1098;102681;-81
2021/05/11 15:33:32;;;;;;;8.93;2.40;;;;;;;25.49;28.82;99594.67;128018;1098;100900;-81
2021/05/11 15:36:20;;;;;;;13.23;2.17;;;;;;;25.45;28.79;99587.98;128052;1098;100716;-81
2021/05/11 15:39:07;;;;;;;8.77;2.10;;;;;;;25.40;28.58;99590.31;128001;1098;100732;-81
2021/05/11 15:41:55;;;;;;;5.43;2.10;;;;;;;25.37;29.07;99591.47;128211;1098;100663;-80
2021/05/11 15:44:43;;;;;;;7.43;2.20;;;;;;;25.35;28.97;99593.47;128236;1098;101017;-80
2021/05/11 15:47:31;;;;;;;5.30;2.23;;;;;;;25.33;28.86;99583.95;128175;1098;100741;-80
2021/05/11 15:50:23;;;;;;;7.40;2.00;;;;;;;25.30;28.99;99598.42;128241;1098;100805;-81
2021/05/11 15:53:16;;;;;;;8.03;1.93;;;;;;;25.27;28.88;99590.74;128179;1098;101078;-81
2021/05/11 15:56:04;;;;;;;9.63;1.93;;;;;;;25.24;28.68;99602.58;128022;1098;100757;-81
2021/05/11 15:58:52;;;;;;;6.90;1.90;;;;;;;25.23;29.04;99603.57;128023;1098;101521;-82
2021/05/11 16:01:40;;;;;;;9.23;2.00;;;;;;;25.20;29.16;99598.56;128011;1098;101173;-81
2021/05/11 16:04:28;;;;;;;6.37;1.80;;;;;;;25.18;28.96;99581.88;128046;1098;101088;-83
2021/05/11 16:07:15;;;;;;;9.77;2.20;;;;;;;25.16;29.02;99573.20;127975;1098;100751;-84
2021/05/11 16:10:07;;;;;;;3.07;1.80;;;;;;;25.14;28.86;99577.86;128239;1098;100706;-82
2021/05/11 16:12:56;;;;;;;6.30;1.90;;;;;;;25.11;29.00;99588.82;128029;1098;100768;-84
2021/05/11 16:15:44;;;;;;;4.47;2.00;;;;;;;25.07;28.98;99587.47;127984;1098;100943;-84
2021/05/11 16:18:31;;;;;;;5.50;2.00;;;;;;;25.03;29.36;99575.45;128021;1098;101113;-82
2021/05/11 16:21:19;;;;;;;;;;;;;;;25.01;29.16;99582.77;128039;1098;101019;-82
2021/05/11 16:24:07;;;;;;;6.77;1.90;;;;;;;24.98;29.21;99577.73;128024;1098;100700;-82
2021/05/11 16:26:54;;;;;;;5.00;1.60;;;;;;;24.96;29.04;99566.38;128042;1098;101534;-82
2021/05/11 16:29:42;;;;;;;;;;;;;;;24.93;29.16;99566.67;128013;1098;100764;-84
2021/05/11 16:32:29;;;;;;;4.67;1.73;;;;;;;24.89;29.08;99587.49;128215;1098;101363;-84
2021/05/11 16:35:17;;;;;;;8.77;2.00;;;;;;;24.88;29.11;99580.48;128201;1098;100795;-84
2021/05/11 16:38:06;;;;;;;7.63;1.90;;;;;;;24.86;29.10;99605.65;128146;1098;100868;-83
2021/05/11 16:40:55;;;;;;;7.53;1.77;;;;;;;24.84;29.17;99559.63;128058;1098;100790;-83
2021/05/11 16:43:43;;;;;;;6.97;2.00;;;;;;;24.82;29.06;99575.79;128029;1098;101093;-83
2021/05/11 16:46:31;;;;;;;5.70;2.13;;;;;;;24.80;28.93;99574.28;128029;1098;100894;-83
2021/05/11 16:49:19;;;;;;;5.17;1.90;;;;;;;24.78;28.90;99570.94;128007;1098;100640;-83
2021/05/11 16:52:07;;;;;;;6.77;1.90;;;;;;;24.74;28.86;99566.88;128045;1098;100886;-85
2021/05/11 16:54:54;;;;;;;4.60;1.90;;;;;;;24.69;29.06;99565.53;128037;1098;101906;-83
2021/05/11 16:57:42;;;;;;;3.03;1.90;;;;;;;24.66;28.81;99568.51;127996;1098;100862;-85